sensor_id;sensor_type;location;lat;lon;timestamp;P1;durP1;ratioP1;P2;durP2;ratioP2
21675;SDS011;10999;51.332;9.458;2023-02-28T00:01:04;4.25;;;1.33;;
21675;SDS011;10999;51.332;9.458;2023-02-28T00:03:30;3.80;;;1.13;;
21675;SDS011;10999;51.332;9.458;2023-02-28T00:06:04;3.28;;;1.42;;
21675;SDS011;10999;51.332;9.458;2023-02-28T00:08:32;4.97;;;1.88;;
21675;SDS011;10999;51.332;9.458;2023-02-28T00:11:03;3.08;;;1.13;;
21675;SDS011;10999;51.332;9.458;2023-02-28T00:13:31;2.10;;;0.80;;
21675;SDS011;10999;51.332;9.458;2023-02-28T00:16:02;2.10;;;0.90;;
21675;SDS011;10999;51.332;9.458;2023-02-28T00:18:35;4.28;;;0.82;;
21675;SDS011;10999;51.332;9.458;2023-02-28T00:21:03;2.47;;;1.05;;
21675;SDS011;10999;51.332;9.458;2023-02-28T00:23:30;3.33;;;0.80;;
21675;SDS011;10999;51.332;9.458;2023-02-28T00:25:57;1.77;;;0.70;;
21675;SDS011;10999;51.332;9.458;2023-02-28T00:28:24;2.70;;;0.98;;
21675;SDS011;10999;51.332;9.458;2023-02-28T00:30:50;2.20;;;0.90;;
21675;SDS011;10999;51.332;9.458;2023-02-28T00:33:17;2.15;;;1.00;;
21675;SDS011;10999;51.332;9.458;2023-02-28T00:35:44;1.65;;;0.85;;
21675;SDS011;10999;51.332;9.458;2023-02-28T00:38:15;3.25;;;0.88;;
21675;SDS011;10999;51.332;9.458;2023-02-28T00:40:41;1.80;;;0.65;;
21675;SDS011;10999;51.332;9.458;2023-02-28T00:43:08;2.15;;;1.00;;
21675;SDS011;10999;51.332;9.458;2023-02-28T00:45:35;2.10;;;0.95;;
21675;SDS011;10999;51.332;9.458;2023-02-28T00:48:02;4.32;;;0.88;;
21675;SDS011;10999;51.332;9.458;2023-02-28T00:50:28;2.83;;;1.08;;
21675;SDS011;10999;51.332;9.458;2023-02-28T00:52:55;3.35;;;0.90;;
21675;SDS011;10999;51.332;9.458;2023-02-28T00:55:22;4.72;;;1.13;;
21675;SDS011;10999;51.332;9.458;2023-02-28T00:57:49;2.35;;;1.00;;
21675;SDS011;10999;51.332;9.458;2023-02-28T01:00:15;2.63;;;1.05;;
21675;SDS011;10999;51.332;9.458;2023-02-28T01:02:42;2.50;;;0.75;;
21675;SDS011;10999;51.332;9.458;2023-02-28T01:05:09;1.70;;;0.60;;
21675;SDS011;10999;51.332;9.458;2023-02-28T01:07:35;1.85;;;0.85;;
21675;SDS011;10999;51.332;9.458;2023-02-28T01:10:02;3.47;;;0.80;;
21675;SDS011;10999;51.332;9.458;2023-02-28T01:12:29;2.63;;;1.17;;
21675;SDS011;10999;51.332;9.458;2023-02-28T01:17:23;2.72;;;0.85;;
21675;SDS011;10999;51.332;9.458;2023-02-28T01:19:49;2.03;;;0.80;;
21675;SDS011;10999;51.332;9.458;2023-02-28T01:22:20;2.92;;;0.90;;
21675;SDS011;10999;51.332;9.458;2023-02-28T01:24:46;2.50;;;1.05;;
21675;SDS011;10999;51.332;9.458;2023-02-28T01:27:13;1.95;;;0.68;;
21675;SDS011;10999;51.332;9.458;2023-02-28T01:29:40;2.83;;;1.10;;
21675;SDS011;10999;51.332;9.458;2023-02-28T01:34:33;5.03;;;1.05;;
21675;SDS011;10999;51.332;9.458;2023-02-28T01:39:27;1.70;;;0.70;;
21675;SDS011;10999;51.332;9.458;2023-02-28T01:41:53;3.30;;;0.90;;
21675;SDS011;10999;51.332;9.458;2023-02-28T01:47:31;1.90;;;0.80;;
21675;SDS011;10999;51.332;9.458;2023-02-28T01:50:01;3.88;;;1.13;;
21675;SDS011;10999;51.332;9.458;2023-02-28T01:52:30;2.75;;;0.88;;
21675;SDS011;10999;51.332;9.458;2023-02-28T01:54:59;2.03;;;0.82;;
21675;SDS011;10999;51.332;9.458;2023-02-28T01:57:29;1.73;;;0.80;;
21675;SDS011;10999;51.332;9.458;2023-02-28T02:00:13;1.52;;;0.73;;
21675;SDS011;10999;51.332;9.458;2023-02-28T02:02:42;4.63;;;0.88;;
21675;SDS011;10999;51.332;9.458;2023-02-28T02:05:16;1.40;;;0.70;;
21675;SDS011;10999;51.332;9.458;2023-02-28T02:07:52;2.03;;;0.80;;
21675;SDS011;10999;51.332;9.458;2023-02-28T02:30:37;2.08;;;0.77;;
21675;SDS011;10999;51.332;9.458;2023-02-28T02:36:12;3.15;;;0.55;;
21675;SDS011;10999;51.332;9.458;2023-02-28T02:41:19;2.13;;;0.50;;
21675;SDS011;10999;51.332;9.458;2023-02-28T02:46:45;2.70;;;0.47;;
21675;SDS011;10999;51.332;9.458;2023-02-28T02:49:19;1.88;;;0.57;;
21675;SDS011;10999;51.332;9.458;2023-02-28T02:51:50;1.33;;;0.70;;
21675;SDS011;10999;51.332;9.458;2023-02-28T02:54:29;1.80;;;0.80;;
21675;SDS011;10999;51.332;9.458;2023-02-28T02:57:01;3.60;;;0.90;;
21675;SDS011;10999;51.332;9.458;2023-02-28T02:59:32;2.70;;;0.65;;
21675;SDS011;10999;51.332;9.458;2023-02-28T03:02:02;2.15;;;0.80;;
21675;SDS011;10999;51.332;9.458;2023-02-28T03:04:33;1.42;;;0.65;;
21675;SDS011;10999;51.332;9.458;2023-02-28T03:07:08;2.65;;;0.90;;
21675;SDS011;10999;51.332;9.458;2023-02-28T03:09:35;2.17;;;0.82;;
21675;SDS011;10999;51.332;9.458;2023-02-28T03:14:49;1.48;;;0.63;;
21675;SDS011;10999;51.332;9.458;2023-02-28T03:20:01;3.53;;;0.82;;
21675;SDS011;10999;51.332;9.458;2023-02-28T03:25:30;1.50;;;0.73;;
21675;SDS011;10999;51.332;9.458;2023-02-28T03:28:13;2.95;;;0.88;;
21675;SDS011;10999;51.332;9.458;2023-02-28T03:33:26;2.40;;;0.80;;
21675;SDS011;10999;51.332;9.458;2023-02-28T03:35:59;2.95;;;0.80;;
21675;SDS011;10999;51.332;9.458;2023-02-28T03:38:51;2.33;;;0.60;;
21675;SDS011;10999;51.332;9.458;2023-02-28T03:41:35;2.53;;;0.60;;
21675;SDS011;10999;51.332;9.458;2023-02-28T03:44:15;2.38;;;0.95;;
21675;SDS011;10999;51.332;9.458;2023-02-28T03:46:52;1.40;;;0.70;;
21675;SDS011;10999;51.332;9.458;2023-02-28T03:49:30;2.53;;;0.73;;
21675;SDS011;10999;51.332;9.458;2023-02-28T03:52:02;2.45;;;0.60;;
21675;SDS011;10999;51.332;9.458;2023-02-28T03:54:32;2.90;;;0.90;;
21675;SDS011;10999;51.332;9.458;2023-02-28T04:00:06;1.83;;;0.77;;
21675;SDS011;10999;51.332;9.458;2023-02-28T04:02:52;1.52;;;0.63;;
21675;SDS011;10999;51.332;9.458;2023-02-28T04:05:20;1.75;;;0.70;;
21675;SDS011;10999;51.332;9.458;2023-02-28T04:07:47;1.05;;;0.57;;
21675;SDS011;10999;51.332;9.458;2023-02-28T04:10:15;1.95;;;0.77;;
21675;SDS011;10999;51.332;9.458;2023-02-28T04:12:42;4.82;;;0.90;;
21675;SDS011;10999;51.332;9.458;2023-02-28T04:15:09;1.70;;;0.60;;
21675;SDS011;10999;51.332;9.458;2023-02-28T04:17:37;3.60;;;1.15;;
21675;SDS011;10999;51.332;9.458;2023-02-28T04:20:04;3.28;;;0.90;;
21675;SDS011;10999;51.332;9.458;2023-02-28T04:22:35;1.88;;;0.70;;
21675;SDS011;10999;51.332;9.458;2023-02-28T04:25:03;0.95;;;0.50;;
21675;SDS011;10999;51.332;9.458;2023-02-28T04:27:31;3.83;;;0.98;;
21675;SDS011;10999;51.332;9.458;2023-02-28T04:29:58;1.17;;;0.57;;
21675;SDS011;10999;51.332;9.458;2023-02-28T04:32:25;1.90;;;0.70;;
21675;SDS011;10999;51.332;9.458;2023-02-28T04:34:52;2.67;;;0.85;;
21675;SDS011;10999;51.332;9.458;2023-02-28T04:37:18;2.15;;;0.68;;
21675;SDS011;10999;51.332;9.458;2023-02-28T04:39:45;2.13;;;0.75;;
21675;SDS011;10999;51.332;9.458;2023-02-28T04:42:12;3.38;;;0.90;;
21675;SDS011;10999;51.332;9.458;2023-02-28T04:44:39;3.17;;;0.88;;
21675;SDS011;10999;51.332;9.458;2023-02-28T04:49:32;3.08;;;1.00;;
21675;SDS011;10999;51.332;9.458;2023-02-28T04:51:59;5.28;;;1.15;;
21675;SDS011;10999;51.332;9.458;2023-02-28T04:54:26;2.58;;;0.95;;
21675;SDS011;10999;51.332;9.458;2023-02-28T04:56:54;1.90;;;0.70;;
21675;SDS011;10999;51.332;9.458;2023-02-28T05:01:48;4.32;;;1.27;;
21675;SDS011;10999;51.332;9.458;2023-02-28T05:04:15;3.78;;;1.13;;
21675;SDS011;10999;51.332;9.458;2023-02-28T05:06:42;3.30;;;1.10;;
21675;SDS011;10999;51.332;9.458;2023-02-28T05:09:09;2.95;;;1.08;;
21675;SDS011;10999;51.332;9.458;2023-02-28T05:11:39;3.00;;;0.90;;
21675;SDS011;10999;51.332;9.458;2023-02-28T05:14:09;2.17;;;0.82;;
21675;SDS011;10999;51.332;9.458;2023-02-28T05:16:39;3.33;;;0.90;;
21675;SDS011;10999;51.332;9.458;2023-02-28T05:19:06;3.05;;;1.00;;
21675;SDS011;10999;51.332;9.458;2023-02-28T05:24:00;1.88;;;0.80;;
21675;SDS011;10999;51.332;9.458;2023-02-28T05:26:29;4.15;;;1.08;;
21675;SDS011;10999;51.332;9.458;2023-02-28T05:28:56;2.42;;;0.70;;
21675;SDS011;10999;51.332;9.458;2023-02-28T05:31:23;2.33;;;0.85;;
21675;SDS011;10999;51.332;9.458;2023-02-28T05:33:50;6.15;;;1.10;;
21675;SDS011;10999;51.332;9.458;2023-02-28T05:36:17;1.85;;;0.77;;
21675;SDS011;10999;51.332;9.458;2023-02-28T05:38:48;3.03;;;1.08;;
21675;SDS011;10999;51.332;9.458;2023-02-28T05:41:16;3.10;;;0.90;;
21675;SDS011;10999;51.332;9.458;2023-02-28T05:43:43;3.88;;;0.80;;
21675;SDS011;10999;51.332;9.458;2023-02-28T05:48:37;2.78;;;1.15;;
21675;SDS011;10999;51.332;9.458;2023-02-28T05:51:06;4.03;;;1.20;;
21675;SDS011;10999;51.332;9.458;2023-02-28T05:53:34;3.05;;;1.20;;
21675;SDS011;10999;51.332;9.458;2023-02-28T05:56:01;3.20;;;1.20;;
21675;SDS011;10999;51.332;9.458;2023-02-28T05:58:28;5.22;;;1.20;;
21675;SDS011;10999;51.332;9.458;2023-02-28T06:00:57;3.50;;;1.00;;
21675;SDS011;10999;51.332;9.458;2023-02-28T06:03:25;2.83;;;1.10;;
21675;SDS011;10999;51.332;9.458;2023-02-28T06:05:53;3.15;;;1.27;;
21675;SDS011;10999;51.332;9.458;2023-02-28T06:08:20;3.17;;;1.38;;
21675;SDS011;10999;51.332;9.458;2023-02-28T06:10:47;3.15;;;1.70;;
21675;SDS011;10999;51.332;9.458;2023-02-28T06:13:13;4.50;;;1.10;;
21675;SDS011;10999;51.332;9.458;2023-02-28T06:15:41;3.92;;;1.45;;
21675;SDS011;10999;51.332;9.458;2023-02-28T06:18:08;3.92;;;0.93;;
21675;SDS011;10999;51.332;9.458;2023-02-28T06:20:34;2.53;;;1.00;;
21675;SDS011;10999;51.332;9.458;2023-02-28T06:23:02;4.00;;;1.27;;
21675;SDS011;10999;51.332;9.458;2023-02-28T06:25:29;5.07;;;1.50;;
21675;SDS011;10999;51.332;9.458;2023-02-28T06:27:56;4.10;;;1.30;;
21675;SDS011;10999;51.332;9.458;2023-02-28T06:30:22;2.92;;;1.17;;
21675;SDS011;10999;51.332;9.458;2023-02-28T06:32:51;4.50;;;1.40;;
21675;SDS011;10999;51.332;9.458;2023-02-28T06:35:18;3.22;;;1.20;;
21675;SDS011;10999;51.332;9.458;2023-02-28T06:37:45;4.38;;;1.50;;
21675;SDS011;10999;51.332;9.458;2023-02-28T06:40:13;4.63;;;1.50;;
21675;SDS011;10999;51.332;9.458;2023-02-28T06:42:40;3.50;;;1.38;;
21675;SDS011;10999;51.332;9.458;2023-02-28T06:45:07;3.65;;;1.20;;
21675;SDS011;10999;51.332;9.458;2023-02-28T06:47:36;2.53;;;1.02;;
21675;SDS011;10999;51.332;9.458;2023-02-28T06:50:04;5.18;;;1.58;;
21675;SDS011;10999;51.332;9.458;2023-02-28T06:52:31;4.05;;;1.02;;
21675;SDS011;10999;51.332;9.458;2023-02-28T06:54:58;5.72;;;1.58;;
21675;SDS011;10999;51.332;9.458;2023-02-28T06:57:28;4.45;;;1.45;;
21675;SDS011;10999;51.332;9.458;2023-02-28T06:59:59;4.35;;;1.33;;
21675;SDS011;10999;51.332;9.458;2023-02-28T07:02:27;3.47;;;1.20;;
21675;SDS011;10999;51.332;9.458;2023-02-28T07:04:54;5.20;;;1.40;;
21675;SDS011;10999;51.332;9.458;2023-02-28T07:07:20;4.20;;;1.25;;
21675;SDS011;10999;51.332;9.458;2023-02-28T07:09:47;2.72;;;1.10;;
21675;SDS011;10999;51.332;9.458;2023-02-28T07:12:14;2.95;;;1.30;;
21675;SDS011;10999;51.332;9.458;2023-02-28T07:14:41;2.97;;;1.08;;
21675;SDS011;10999;51.332;9.458;2023-02-28T07:17:08;5.05;;;1.40;;
21675;SDS011;10999;51.332;9.458;2023-02-28T07:19:38;6.30;;;2.65;;
21675;SDS011;10999;51.332;9.458;2023-02-28T07:22:06;5.75;;;2.17;;
21675;SDS011;10999;51.332;9.458;2023-02-28T07:24:33;5.90;;;2.00;;
21675;SDS011;10999;51.332;9.458;2023-02-28T07:27:00;3.30;;;1.30;;
21675;SDS011;10999;51.332;9.458;2023-02-28T07:29:27;5.18;;;1.08;;
21675;SDS011;10999;51.332;9.458;2023-02-28T07:31:54;4.15;;;1.40;;
21675;SDS011;10999;51.332;9.458;2023-02-28T07:34:22;4.60;;;1.70;;
21675;SDS011;10999;51.332;9.458;2023-02-28T07:36:49;4.03;;;1.20;;
21675;SDS011;10999;51.332;9.458;2023-02-28T07:39:20;4.97;;;1.23;;
21675;SDS011;10999;51.332;9.458;2023-02-28T07:41:47;2.90;;;1.10;;
21675;SDS011;10999;51.332;9.458;2023-02-28T07:44:14;2.67;;;1.05;;
21675;SDS011;10999;51.332;9.458;2023-02-28T07:46:41;2.85;;;1.20;;
21675;SDS011;10999;51.332;9.458;2023-02-28T07:49:08;3.65;;;1.60;;
21675;SDS011;10999;51.332;9.458;2023-02-28T07:51:35;2.90;;;1.00;;
21675;SDS011;10999;51.332;9.458;2023-02-28T07:54:02;3.42;;;1.20;;
21675;SDS011;10999;51.332;9.458;2023-02-28T07:56:29;2.10;;;1.05;;
21675;SDS011;10999;51.332;9.458;2023-02-28T07:58:56;2.60;;;0.93;;
21675;SDS011;10999;51.332;9.458;2023-02-28T08:01:23;3.15;;;1.05;;
21675;SDS011;10999;51.332;9.458;2023-02-28T08:03:50;3.33;;;0.90;;
21675;SDS011;10999;51.332;9.458;2023-02-28T08:06:18;5.97;;;1.20;;
21675;SDS011;10999;51.332;9.458;2023-02-28T08:08:47;2.72;;;0.93;;
21675;SDS011;10999;51.332;9.458;2023-02-28T08:11:14;2.38;;;0.95;;
21675;SDS011;10999;51.332;9.458;2023-02-28T08:13:42;4.88;;;1.58;;
21675;SDS011;10999;51.332;9.458;2023-02-28T08:16:10;2.97;;;1.08;;
21675;SDS011;10999;51.332;9.458;2023-02-28T08:18:41;3.58;;;1.08;;
21675;SDS011;10999;51.332;9.458;2023-02-28T08:21:09;3.53;;;0.90;;
21675;SDS011;10999;51.332;9.458;2023-02-28T08:23:36;3.05;;;1.20;;
21675;SDS011;10999;51.332;9.458;2023-02-28T08:26:03;3.47;;;1.15;;
21675;SDS011;10999;51.332;9.458;2023-02-28T08:28:30;4.90;;;1.60;;
21675;SDS011;10999;51.332;9.458;2023-02-28T08:30:57;4.95;;;1.42;;
21675;SDS011;10999;51.332;9.458;2023-02-28T08:33:25;3.90;;;1.45;;
21675;SDS011;10999;51.332;9.458;2023-02-28T08:35:54;5.47;;;1.52;;
21675;SDS011;10999;51.332;9.458;2023-02-28T08:38:22;3.45;;;1.80;;
21675;SDS011;10999;51.332;9.458;2023-02-28T08:40:49;4.15;;;1.17;;
21675;SDS011;10999;51.332;9.458;2023-02-28T08:43:16;5.28;;;1.52;;
21675;SDS011;10999;51.332;9.458;2023-02-28T08:45:43;6.70;;;1.60;;
21675;SDS011;10999;51.332;9.458;2023-02-28T08:48:09;6.07;;;1.95;;
21675;SDS011;10999;51.332;9.458;2023-02-28T08:50:36;4.38;;;1.60;;
21675;SDS011;10999;51.332;9.458;2023-02-28T08:53:03;4.30;;;1.52;;
21675;SDS011;10999;51.332;9.458;2023-02-28T08:55:30;4.38;;;1.77;;
21675;SDS011;10999;51.332;9.458;2023-02-28T08:57:56;5.22;;;1.45;;
21675;SDS011;10999;51.332;9.458;2023-02-28T09:00:24;3.88;;;1.40;;
21675;SDS011;10999;51.332;9.458;2023-02-28T09:02:51;4.18;;;1.45;;
21675;SDS011;10999;51.332;9.458;2023-02-28T09:05:18;4.10;;;1.40;;
21675;SDS011;10999;51.332;9.458;2023-02-28T09:07:44;4.47;;;1.15;;
21675;SDS011;10999;51.332;9.458;2023-02-28T09:10:11;5.72;;;1.67;;
21675;SDS011;10999;51.332;9.458;2023-02-28T09:12:40;5.28;;;1.77;;
21675;SDS011;10999;51.332;9.458;2023-02-28T09:15:07;3.65;;;1.23;;
21675;SDS011;10999;51.332;9.458;2023-02-28T09:17:34;4.25;;;1.40;;
21675;SDS011;10999;51.332;9.458;2023-02-28T09:20:01;5.30;;;1.65;;
21675;SDS011;10999;51.332;9.458;2023-02-28T09:22:28;4.85;;;1.80;;
21675;SDS011;10999;51.332;9.458;2023-02-28T09:24:55;4.78;;;1.35;;
21675;SDS011;10999;51.332;9.458;2023-02-28T09:27:22;3.70;;;1.27;;
21675;SDS011;10999;51.332;9.458;2023-02-28T09:29:48;3.53;;;1.33;;
21675;SDS011;10999;51.332;9.458;2023-02-28T09:32:15;4.93;;;1.50;;
21675;SDS011;10999;51.332;9.458;2023-02-28T09:34:43;5.68;;;1.80;;
21675;SDS011;10999;51.332;9.458;2023-02-28T09:37:10;5.70;;;1.48;;
21675;SDS011;10999;51.332;9.458;2023-02-28T09:39:36;5.07;;;1.55;;
21675;SDS011;10999;51.332;9.458;2023-02-28T09:42:03;3.72;;;1.25;;
21675;SDS011;10999;51.332;9.458;2023-02-28T09:46:59;4.07;;;1.58;;
21675;SDS011;10999;51.332;9.458;2023-02-28T09:49:36;5.30;;;1.85;;
21675;SDS011;10999;51.332;9.458;2023-02-28T09:57:46;4.28;;;1.30;;
21675;SDS011;10999;51.332;9.458;2023-02-28T10:00:14;4.68;;;1.40;;
21675;SDS011;10999;51.332;9.458;2023-02-28T10:08:55;5.85;;;1.73;;
21675;SDS011;10999;51.332;9.458;2023-02-28T10:11:32;4.07;;;2.20;;
21675;SDS011;10999;51.332;9.458;2023-02-28T10:16:39;3.92;;;1.40;;
21675;SDS011;10999;51.332;9.458;2023-02-28T10:19:16;3.50;;;1.50;;
21675;SDS011;10999;51.332;9.458;2023-02-28T10:21:47;2.80;;;1.10;;
21675;SDS011;10999;51.332;9.458;2023-02-28T10:24:23;8.13;;;2.22;;
21675;SDS011;10999;51.332;9.458;2023-02-28T10:32:16;5.35;;;1.50;;
21675;SDS011;10999;51.332;9.458;2023-02-28T10:34:50;4.18;;;1.70;;
21675;SDS011;10999;51.332;9.458;2023-02-28T10:37:40;5.07;;;1.80;;
21675;SDS011;10999;51.332;9.458;2023-02-28T10:42:54;6.18;;;1.88;;
21675;SDS011;10999;51.332;9.458;2023-02-28T10:45:23;2.90;;;1.38;;
21675;SDS011;10999;51.332;9.458;2023-02-28T10:55:57;4.68;;;1.80;;
21675;SDS011;10999;51.332;9.458;2023-02-28T11:04:48;4.68;;;2.05;;
21675;SDS011;10999;51.332;9.458;2023-02-28T11:06:56;6.95;;;2.55;;
21675;SDS011;10999;51.332;9.458;2023-02-28T11:09:28;4.95;;;2.13;;
21675;SDS011;10999;51.332;9.458;2023-02-28T11:12:05;4.03;;;1.70;;
21675;SDS011;10999;51.332;9.458;2023-02-28T11:14:47;7.28;;;2.30;;
21675;SDS011;10999;51.332;9.458;2023-02-28T11:17:20;5.38;;;2.03;;
21675;SDS011;10999;51.332;9.458;2023-02-28T11:22:45;4.80;;;2.20;;
21675;SDS011;10999;51.332;9.458;2023-02-28T11:25:19;3.35;;;1.60;;
21675;SDS011;10999;51.332;9.458;2023-02-28T11:28:03;3.78;;;1.70;;
21675;SDS011;10999;51.332;9.458;2023-02-28T11:30:39;4.88;;;2.13;;
21675;SDS011;10999;51.332;9.458;2023-02-28T11:35:59;6.78;;;2.10;;
21675;SDS011;10999;51.332;9.458;2023-02-28T11:38:30;5.70;;;2.20;;
21675;SDS011;10999;51.332;9.458;2023-02-28T11:41:05;5.68;;;1.98;;
21675;SDS011;10999;51.332;9.458;2023-02-28T11:46:47;5.82;;;2.30;;
21675;SDS011;10999;51.332;9.458;2023-02-28T11:52:05;5.28;;;2.28;;
21675;SDS011;10999;51.332;9.458;2023-02-28T11:57:32;5.65;;;2.40;;
21675;SDS011;10999;51.332;9.458;2023-02-28T12:00:15;6.22;;;2.28;;
21675;SDS011;10999;51.332;9.458;2023-02-28T12:05:24;5.95;;;2.13;;
21675;SDS011;10999;51.332;9.458;2023-02-28T12:10:25;5.90;;;2.45;;
21675;SDS011;10999;51.332;9.458;2023-02-28T12:26:55;5.35;;;2.30;;
21675;SDS011;10999;51.332;9.458;2023-02-28T12:29:30;6.07;;;2.63;;
21675;SDS011;10999;51.332;9.458;2023-02-28T12:32:07;5.53;;;2.45;;
21675;SDS011;10999;51.332;9.458;2023-02-28T12:35:26;5.10;;;2.00;;
21675;SDS011;10999;51.332;9.458;2023-02-28T12:37:40;4.55;;;2.00;;
21675;SDS011;10999;51.332;9.458;2023-02-28T12:40:16;6.40;;;2.20;;
21675;SDS011;10999;51.332;9.458;2023-02-28T12:42:50;4.63;;;2.03;;
21675;SDS011;10999;51.332;9.458;2023-02-28T12:48:00;6.50;;;2.40;;
21675;SDS011;10999;51.332;9.458;2023-02-28T12:50:29;6.35;;;2.22;;
21675;SDS011;10999;51.332;9.458;2023-02-28T12:58:08;6.82;;;3.17;;
21675;SDS011;10999;51.332;9.458;2023-02-28T13:00:38;6.78;;;2.38;;
21675;SDS011;10999;51.332;9.458;2023-02-28T13:06:05;6.63;;;2.60;;
21675;SDS011;10999;51.332;9.458;2023-02-28T13:11:48;6.65;;;2.45;;
21675;SDS011;10999;51.332;9.458;2023-02-28T13:22:16;5.68;;;2.10;;
21675;SDS011;10999;51.332;9.458;2023-02-28T13:24:50;7.53;;;2.58;;
21675;SDS011;10999;51.332;9.458;2023-02-28T13:27:24;7.90;;;2.40;;
21675;SDS011;10999;51.332;9.458;2023-02-28T13:36:10;6.28;;;2.50;;
21675;SDS011;10999;51.332;9.458;2023-02-28T13:38:54;5.68;;;2.17;;
21675;SDS011;10999;51.332;9.458;2023-02-28T13:41:41;5.57;;;2.30;;
21675;SDS011;10999;51.332;9.458;2023-02-28T13:44:24;6.88;;;2.53;;
21675;SDS011;10999;51.332;9.458;2023-02-28T13:49:39;6.78;;;2.42;;
21675;SDS011;10999;51.332;9.458;2023-02-28T13:54:47;6.18;;;2.45;;
21675;SDS011;10999;51.332;9.458;2023-02-28T13:57:52;6.20;;;2.35;;
21675;SDS011;10999;51.332;9.458;2023-02-28T14:00:45;5.75;;;2.60;;
21675;SDS011;10999;51.332;9.458;2023-02-28T14:03:36;7.60;;;2.90;;
21675;SDS011;10999;51.332;9.458;2023-02-28T14:11:37;7.30;;;2.65;;
21675;SDS011;10999;51.332;9.458;2023-02-28T14:14:06;6.30;;;2.88;;
21675;SDS011;10999;51.332;9.458;2023-02-28T14:16:41;7.07;;;2.42;;
21675;SDS011;10999;51.332;9.458;2023-02-28T14:19:14;5.47;;;2.50;;
21675;SDS011;10999;51.332;9.458;2023-02-28T14:30:25;8.00;;;2.92;;
21675;SDS011;10999;51.332;9.458;2023-02-28T14:36:03;6.07;;;2.75;;
21675;SDS011;10999;51.332;9.458;2023-02-28T14:41:14;7.90;;;2.80;;
21675;SDS011;10999;51.332;9.458;2023-02-28T14:43:51;6.03;;;2.50;;
21675;SDS011;10999;51.332;9.458;2023-02-28T14:46:39;7.53;;;2.70;;
21675;SDS011;10999;51.332;9.458;2023-02-28T14:49:27;6.60;;;2.88;;
21675;SDS011;10999;51.332;9.458;2023-02-28T14:54:41;7.35;;;3.10;;
21675;SDS011;10999;51.332;9.458;2023-02-28T14:59:59;7.50;;;2.88;;
21675;SDS011;10999;51.332;9.458;2023-02-28T15:02:29;7.57;;;2.83;;
21675;SDS011;10999;51.332;9.458;2023-02-28T15:05:22;6.15;;;2.80;;
21675;SDS011;10999;51.332;9.458;2023-02-28T15:07:47;7.95;;;3.10;;
21675;SDS011;10999;51.332;9.458;2023-02-28T15:10:26;8.32;;;2.90;;
21675;SDS011;10999;51.332;9.458;2023-02-28T15:12:58;9.90;;;3.25;;
21675;SDS011;10999;51.332;9.458;2023-02-28T15:15:42;7.65;;;2.90;;
21675;SDS011;10999;51.332;9.458;2023-02-28T15:21:10;8.00;;;3.38;;
21675;SDS011;10999;51.332;9.458;2023-02-28T15:23:45;6.95;;;3.15;;
21675;SDS011;10999;51.332;9.458;2023-02-28T15:26:16;6.40;;;3.03;;
21675;SDS011;10999;51.332;9.458;2023-02-28T15:28:48;7.28;;;2.90;;
21675;SDS011;10999;51.332;9.458;2023-02-28T15:31:40;8.93;;;3.38;;
21675;SDS011;10999;51.332;9.458;2023-02-28T15:34:27;10.90;;;3.90;;
21675;SDS011;10999;51.332;9.458;2023-02-28T15:37:26;8.27;;;3.22;;
21675;SDS011;10999;51.332;9.458;2023-02-28T15:40:10;7.55;;;2.85;;
21675;SDS011;10999;51.332;9.458;2023-02-28T15:42:40;14.65;;;4.50;;
21675;SDS011;10999;51.332;9.458;2023-02-28T15:45:28;12.75;;;4.72;;
21675;SDS011;10999;51.332;9.458;2023-02-28T15:48:27;10.48;;;3.63;;
21675;SDS011;10999;51.332;9.458;2023-02-28T15:53:57;6.90;;;3.15;;
21675;SDS011;10999;51.332;9.458;2023-02-28T15:56:28;8.95;;;2.85;;
21675;SDS011;10999;51.332;9.458;2023-02-28T15:58:59;6.13;;;2.53;;
21675;SDS011;10999;51.332;9.458;2023-02-28T16:01:28;6.43;;;2.45;;
21675;SDS011;10999;51.332;9.458;2023-02-28T16:04:00;10.20;;;3.63;;
21675;SDS011;10999;51.332;9.458;2023-02-28T16:06:33;9.05;;;3.17;;
21675;SDS011;10999;51.332;9.458;2023-02-28T16:09:00;8.15;;;3.50;;
21675;SDS011;10999;51.332;9.458;2023-02-28T16:11:28;6.28;;;3.17;;
21675;SDS011;10999;51.332;9.458;2023-02-28T16:13:56;8.93;;;3.47;;
21675;SDS011;10999;51.332;9.458;2023-02-28T16:16:24;8.15;;;3.55;;
21675;SDS011;10999;51.332;9.458;2023-02-28T16:18:52;9.13;;;3.50;;
21675;SDS011;10999;51.332;9.458;2023-02-28T16:21:19;9.63;;;3.30;;
21675;SDS011;10999;51.332;9.458;2023-02-28T16:23:46;8.82;;;3.53;;
21675;SDS011;10999;51.332;9.458;2023-02-28T16:26:19;9.55;;;3.75;;
21675;SDS011;10999;51.332;9.458;2023-02-28T16:28:50;7.13;;;3.75;;
21675;SDS011;10999;51.332;9.458;2023-02-28T16:31:18;8.80;;;3.80;;
21675;SDS011;10999;51.332;9.458;2023-02-28T16:33:45;7.32;;;2.90;;
21675;SDS011;10999;51.332;9.458;2023-02-28T16:36:13;7.47;;;3.50;;
21675;SDS011;10999;51.332;9.458;2023-02-28T16:38:41;12.05;;;3.88;;
21675;SDS011;10999;51.332;9.458;2023-02-28T16:41:07;9.82;;;3.72;;
21675;SDS011;10999;51.332;9.458;2023-02-28T16:43:43;9.45;;;3.83;;
21675;SDS011;10999;51.332;9.458;2023-02-28T16:46:11;7.05;;;3.40;;
21675;SDS011;10999;51.332;9.458;2023-02-28T16:48:39;9.43;;;3.83;;
21675;SDS011;10999;51.332;9.458;2023-02-28T16:51:13;8.52;;;3.60;;
21675;SDS011;10999;51.332;9.458;2023-02-28T16:53:43;9.95;;;4.30;;
21675;SDS011;10999;51.332;9.458;2023-02-28T16:56:15;10.05;;;3.65;;
21675;SDS011;10999;51.332;9.458;2023-02-28T16:58:42;8.95;;;3.95;;
21675;SDS011;10999;51.332;9.458;2023-02-28T17:01:09;9.40;;;3.78;;
21675;SDS011;10999;51.332;9.458;2023-02-28T17:03:35;9.25;;;4.38;;
21675;SDS011;10999;51.332;9.458;2023-02-28T17:06:03;12.50;;;4.30;;
21675;SDS011;10999;51.332;9.458;2023-02-28T17:08:30;8.90;;;4.13;;
21675;SDS011;10999;51.332;9.458;2023-02-28T17:10:58;9.30;;;3.83;;
21675;SDS011;10999;51.332;9.458;2023-02-28T17:13:25;10.48;;;4.53;;
21675;SDS011;10999;51.332;9.458;2023-02-28T17:15:52;13.82;;;4.57;;
21675;SDS011;10999;51.332;9.458;2023-02-28T17:18:19;10.20;;;4.47;;
21675;SDS011;10999;51.332;9.458;2023-02-28T17:20:47;9.82;;;3.90;;
21675;SDS011;10999;51.332;9.458;2023-02-28T17:23:14;12.65;;;4.28;;
21675;SDS011;10999;51.332;9.458;2023-02-28T17:25:41;9.55;;;4.32;;
21675;SDS011;10999;51.332;9.458;2023-02-28T17:28:22;10.85;;;4.63;;
21675;SDS011;10999;51.332;9.458;2023-02-28T17:30:49;10.45;;;4.43;;
21675;SDS011;10999;51.332;9.458;2023-02-28T17:33:16;10.52;;;4.50;;
21675;SDS011;10999;51.332;9.458;2023-02-28T17:35:43;14.05;;;4.93;;
21675;SDS011;10999;51.332;9.458;2023-02-28T17:38:14;10.48;;;4.82;;
21675;SDS011;10999;51.332;9.458;2023-02-28T17:40:43;9.95;;;4.45;;
21675;SDS011;10999;51.332;9.458;2023-02-28T17:43:10;9.95;;;4.00;;
21675;SDS011;10999;51.332;9.458;2023-02-28T17:45:37;10.98;;;4.70;;
21675;SDS011;10999;51.332;9.458;2023-02-28T17:48:04;10.35;;;4.93;;
21675;SDS011;10999;51.332;9.458;2023-02-28T17:50:31;12.40;;;5.25;;
21675;SDS011;10999;51.332;9.458;2023-02-28T17:52:58;13.27;;;5.18;;
21675;SDS011;10999;51.332;9.458;2023-02-28T17:55:24;8.63;;;4.03;;
21675;SDS011;10999;51.332;9.458;2023-02-28T17:57:51;8.60;;;4.15;;
21675;SDS011;10999;51.332;9.458;2023-02-28T18:00:18;10.32;;;4.90;;
21675;SDS011;10999;51.332;9.458;2023-02-28T18:02:45;10.02;;;4.60;;
21675;SDS011;10999;51.332;9.458;2023-02-28T18:05:12;11.43;;;4.75;;
21675;SDS011;10999;51.332;9.458;2023-02-28T18:07:39;8.95;;;4.10;;
21675;SDS011;10999;51.332;9.458;2023-02-28T18:10:09;13.05;;;5.30;;
21675;SDS011;10999;51.332;9.458;2023-02-28T18:12:46;9.95;;;4.47;;
21675;SDS011;10999;51.332;9.458;2023-02-28T18:15:14;10.90;;;6.15;;
21675;SDS011;10999;51.332;9.458;2023-02-28T18:17:41;15.98;;;7.13;;
21675;SDS011;10999;51.332;9.458;2023-02-28T18:20:11;13.05;;;6.20;;
21675;SDS011;10999;51.332;9.458;2023-02-28T18:22:39;12.73;;;6.88;;
21675;SDS011;10999;51.332;9.458;2023-02-28T18:25:07;12.95;;;7.28;;